sensor_id;sensor_type;location;lat;lon;timestamp;pressure;altitude;pressure_sealevel;temperature;humidity
3250;BME280;1637;42.020;23.992;2022-08-19T00:00:51;92749.31;;;21.11;67.06
3250;BME280;1637;42.020;23.992;2022-08-19T00:03:17;92745.53;;;21.09;66.71
3250;BME280;1637;42.020;23.992;2022-08-19T00:05:44;92743.31;;;21.37;67.77
3250;BME280;1637;42.020;23.992;2022-08-19T00:08:11;92733.72;;;21.56;66.63
3250;BME280;1637;42.020;23.992;2022-08-19T00:10:38;92736.72;;;21.43;66.07
3250;BME280;1637;42.020;23.992;2022-08-19T00:13:05;92736.50;;;21.03;67.46
3250;BME280;1637;42.020;23.992;2022-08-19T00:15:31;92740.59;;;20.69;69.02
3250;BME280;1637;42.020;23.992;2022-08-19T00:18:00;92736.56;;;20.40;70.08
3250;BME280;1637;42.020;23.992;2022-08-19T00:20:27;92740.22;;;20.13;71.26
3250;BME280;1637;42.020;23.992;2022-08-19T00:22:53;92737.97;;;19.79;72.95
3250;BME280;1637;42.020;23.992;2022-08-19T00:25:21;92736.09;;;19.94;72.69
3250;BME280;1637;42.020;23.992;2022-08-19T00:27:48;92727.13;;;20.03;71.87
3250;BME280;1637;42.020;23.992;2022-08-19T00:30:15;92724.19;;;19.92;72.54
3250;BME280;1637;42.020;23.992;2022-08-19T00:32:42;92724.00;;;19.95;72.24
3250;BME280;1637;42.020;23.992;2022-08-19T00:35:11;92728.81;;;19.67;73.62
3250;BME280;1637;42.020;23.992;2022-08-19T00:37:38;92718.03;;;19.40;74.08
3250;BME280;1637;42.020;23.992;2022-08-19T00:40:11;92686.09;;;19.26;73.32
3250;BME280;1637;42.020;23.992;2022-08-19T00:42:38;92710.94;;;19.51;73.39
3250;BME280;1637;42.020;23.992;2022-08-19T00:45:10;92703.22;;;20.07;71.61
3250;BME280;1637;42.020;23.992;2022-08-19T00:47:38;92695.97;;;19.80;72.01
3250;BME280;1637;42.020;23.992;2022-08-19T00:50:06;92698.84;;;19.52;72.86
3250;BME280;1637;42.020;23.992;2022-08-19T00:52:39;92705.03;;;19.44;74.14
3250;BME280;1637;42.020;23.992;2022-08-19T00:55:13;92690.53;;;19.47;73.06
3250;BME280;1637;42.020;23.992;2022-08-19T00:57:43;92703.91;;;19.17;74.69
3250;BME280;1637;42.020;23.992;2022-08-19T01:00:14;92712.41;;;19.10;75.30
3250;BME280;1637;42.020;23.992;2022-08-19T01:02:41;92711.97;;;18.94;76.54
3250;BME280;1637;42.020;23.992;2022-08-19T01:05:10;92725.66;;;19.60;73.78
3250;BME280;1637;42.020;23.992;2022-08-19T01:07:40;92726.94;;;19.82;72.46
3250;BME280;1637;42.020;23.992;2022-08-19T01:10:11;92724.84;;;19.77;73.26
3250;BME280;1637;42.020;23.992;2022-08-19T01:12:39;92717.81;;;19.95;71.85
3250;BME280;1637;42.020;23.992;2022-08-19T01:15:08;92721.66;;;19.79;73.00
3250;BME280;1637;42.020;23.992;2022-08-19T01:17:36;92732.94;;;19.86;72.73
3250;BME280;1637;42.020;23.992;2022-08-19T01:20:06;92730.53;;;19.88;72.60
3250;BME280;1637;42.020;23.992;2022-08-19T01:22:37;92733.50;;;19.67;73.89
3250;BME280;1637;42.020;23.992;2022-08-19T01:25:06;92726.22;;;19.31;75.14
3250;BME280;1637;42.020;23.992;2022-08-19T01:27:38;92735.38;;;19.51;74.55
3250;BME280;1637;42.020;23.992;2022-08-19T01:30:06;92730.94;;;19.63;74.19
3250;BME280;1637;42.020;23.992;2022-08-19T01:32:33;92725.56;;;19.45;74.58
3250;BME280;1637;42.020;23.992;2022-08-19T01:35:01;92728.25;;;19.54;74.03
3250;BME280;1637;42.020;23.992;2022-08-19T01:37:29;92720.28;;;19.41;74.02
3250;BME280;1637;42.020;23.992;2022-08-19T01:39:58;92726.50;;;19.33;74.38
3250;BME280;1637;42.020;23.992;2022-08-19T01:42:24;92725.81;;;19.05;75.87
3250;BME280;1637;42.020;23.992;2022-08-19T01:44:51;92711.88;;;18.70;76.69
3250;BME280;1637;42.020;23.992;2022-08-19T01:47:18;92718.97;;;19.28;75.34
3250;BME280;1637;42.020;23.992;2022-08-19T01:49:45;92725.78;;;19.23;74.56
3250;BME280;1637;42.020;23.992;2022-08-19T01:52:12;92724.75;;;19.11;75.27
3250;BME280;1637;42.020;23.992;2022-08-19T01:54:38;92721.03;;;18.91;75.60
3250;BME280;1637;42.020;23.992;2022-08-19T01:57:10;92731.75;;;19.36;74.67
3250;BME280;1637;42.020;23.992;2022-08-19T01:59:37;92732.16;;;18.93;76.15
3250;BME280;1637;42.020;23.992;2022-08-19T02:02:06;92732.03;;;18.78;77.78
3250;BME280;1637;42.020;23.992;2022-08-19T02:04:34;92730.91;;;19.21;75.29
3250;BME280;1637;42.020;23.992;2022-08-19T02:07:01;92732.66;;;18.91;76.88
3250;BME280;1637;42.020;23.992;2022-08-19T02:09:28;92729.63;;;18.80;77.66
3250;BME280;1637;42.020;23.992;2022-08-19T02:11:54;92732.19;;;18.38;80.34
3250;BME280;1637;42.020;23.992;2022-08-19T02:14:23;92726.13;;;18.34;81.03
3250;BME280;1637;42.020;23.992;2022-08-19T02:16:49;92725.41;;;18.24;81.63
3250;BME280;1637;42.020;23.992;2022-08-19T02:19:16;92720.41;;;18.32;81.63
3250;BME280;1637;42.020;23.992;2022-08-19T02:21:44;92732.91;;;18.29;81.63
3250;BME280;1637;42.020;23.992;2022-08-19T02:24:11;92724.19;;;18.07;83.10
3250;BME280;1637;42.020;23.992;2022-08-19T02:26:38;92723.66;;;17.90;84.72
3250;BME280;1637;42.020;23.992;2022-08-19T02:29:05;92731.72;;;18.39;82.44
3250;BME280;1637;42.020;23.992;2022-08-19T02:31:33;92725.78;;;17.86;86.55
3250;BME280;1637;42.020;23.992;2022-08-19T02:34:00;92689.84;;;18.04;84.04
3250;BME280;1637;42.020;23.992;2022-08-19T02:36:27;92726.75;;;18.19;84.88
3250;BME280;1637;42.020;23.992;2022-08-19T02:38:55;92724.28;;;17.94;85.69
3250;BME280;1637;42.020;23.992;2022-08-19T02:41:23;92724.47;;;17.60;88.92
3250;BME280;1637;42.020;23.992;2022-08-19T02:43:50;92730.44;;;17.85;87.00
3250;BME280;1637;42.020;23.992;2022-08-19T02:46:21;92738.91;;;17.97;87.24
3250;BME280;1637;42.020;23.992;2022-08-19T02:48:50;92741.53;;;18.28;84.29
3250;BME280;1637;42.020;23.992;2022-08-19T02:51:20;92743.44;;;18.18;85.00
3250;BME280;1637;42.020;23.992;2022-08-19T02:53:47;92752.09;;;18.80;83.43
3250;BME280;1637;42.020;23.992;2022-08-19T02:56:14;92733.25;;;18.77;80.39
3250;BME280;1637;42.020;23.992;2022-08-19T02:58:42;92743.22;;;18.62;81.17
3250;BME280;1637;42.020;23.992;2022-08-19T03:01:10;92713.00;;;17.96;83.55
3250;BME280;1637;42.020;23.992;2022-08-19T03:03:38;92753.25;;;18.25;83.12
3250;BME280;1637;42.020;23.992;2022-08-19T03:06:08;92757.03;;;18.45;82.67
3250;BME280;1637;42.020;23.992;2022-08-19T03:08:37;92750.91;;;18.63;81.78
3250;BME280;1637;42.020;23.992;2022-08-19T03:11:04;92749.97;;;18.48;82.52
3250;BME280;1637;42.020;23.992;2022-08-19T03:13:31;92751.31;;;18.52;82.16
3250;BME280;1637;42.020;23.992;2022-08-19T03:15:58;92749.25;;;18.66;81.11
3250;BME280;1637;42.020;23.992;2022-08-19T03:18:25;92761.13;;;18.59;81.55
3250;BME280;1637;42.020;23.992;2022-08-19T03:20:53;92738.03;;;18.36;81.46
3250;BME280;1637;42.020;23.992;2022-08-19T03:23:22;92735.19;;;18.22;82.37
3250;BME280;1637;42.020;23.992;2022-08-19T03:25:51;92749.16;;;18.11;84.21
3250;BME280;1637;42.020;23.992;2022-08-19T03:28:19;92751.38;;;17.85;84.78
3250;BME280;1637;42.020;23.992;2022-08-19T03:30:58;92749.97;;;17.71;83.97
3250;BME280;1637;42.020;23.992;2022-08-19T03:33:27;92742.81;;;17.87;82.96
3250;BME280;1637;42.020;23.992;2022-08-19T03:36:06;92750.63;;;17.84;83.09
3250;BME280;1637;42.020;23.992;2022-08-19T03:38:39;92759.28;;;17.39;86.15
3250;BME280;1637;42.020;23.992;2022-08-19T03:41:08;92752.94;;;17.33;88.09
3250;BME280;1637;42.020;23.992;2022-08-19T03:43:36;92757.94;;;17.13;90.19
3250;BME280;1637;42.020;23.992;2022-08-19T03:46:06;92760.34;;;16.89;91.40
3250;BME280;1637;42.020;23.992;2022-08-19T03:48:33;92745.44;;;16.84;92.09
3250;BME280;1637;42.020;23.992;2022-08-19T03:51:01;92763.53;;;17.49;87.94
3250;BME280;1637;42.020;23.992;2022-08-19T03:53:30;92741.91;;;17.59;86.46
3250;BME280;1637;42.020;23.992;2022-08-19T03:55:59;92768.78;;;17.75;84.81
3250;BME280;1637;42.020;23.992;2022-08-19T03:58:27;92771.44;;;18.06;84.23
3250;BME280;1637;42.020;23.992;2022-08-19T04:00:57;92771.00;;;18.07;83.40
3250;BME280;1637;42.020;23.992;2022-08-19T04:03:24;92766.22;;;18.39;81.06
3250;BME280;1637;42.020;23.992;2022-08-19T04:05:52;92777.09;;;18.48;80.67
3250;BME280;1637;42.020;23.992;2022-08-19T04:08:19;92767.91;;;18.82;79.02
3250;BME280;1637;42.020;23.992;2022-08-19T04:10:48;92751.91;;;18.57;78.91
3250;BME280;1637;42.020;23.992;2022-08-19T04:13:17;92779.69;;;18.88;77.96
3250;BME280;1637;42.020;23.992;2022-08-19T04:15:45;92786.31;;;18.78;78.31
3250;BME280;1637;42.020;23.992;2022-08-19T04:18:13;92787.34;;;18.71;78.72
3250;BME280;1637;42.020;23.992;2022-08-19T04:20:42;92791.44;;;19.03;77.64
3250;BME280;1637;42.020;23.992;2022-08-19T04:23:09;92783.56;;;19.23;77.20
3250;BME280;1637;42.020;23.992;2022-08-19T04:25:37;92786.34;;;19.56;76.83
3250;BME280;1637;42.020;23.992;2022-08-19T04:28:04;92797.22;;;19.99;74.96
3250;BME280;1637;42.020;23.992;2022-08-19T04:30:39;92783.72;;;19.80;75.72
3250;BME280;1637;42.020;23.992;2022-08-19T04:33:05;92791.31;;;20.00;74.85
3250;BME280;1637;42.020;23.992;2022-08-19T04:35:35;92794.06;;;20.24;74.49
3250;BME280;1637;42.020;23.992;2022-08-19T04:38:03;92790.31;;;20.93;71.52
3250;BME280;1637;42.020;23.992;2022-08-19T04:40:30;92792.75;;;20.91;70.96
3250;BME280;1637;42.020;23.992;2022-08-19T04:43:26;92788.97;;;21.71;67.71
3250;BME280;1637;42.020;23.992;2022-08-19T04:45:54;92795.75;;;22.25;65.77
3250;BME280;1637;42.020;23.992;2022-08-19T04:48:22;92780.22;;;21.67;66.88
3250;BME280;1637;42.020;23.992;2022-08-19T04:50:52;92783.66;;;22.12;65.83
3250;BME280;1637;42.020;23.992;2022-08-19T04:53:23;92790.31;;;22.46;64.87
3250;BME280;1637;42.020;23.992;2022-08-19T04:55:49;92784.84;;;23.01;62.77
3250;BME280;1637;42.020;23.992;2022-08-19T04:58:17;92792.03;;;23.24;62.07
3250;BME280;1637;42.020;23.992;2022-08-19T05:00:44;92794.06;;;23.29;62.08
3250;BME280;1637;42.020;23.992;2022-08-19T05:03:12;92798.78;;;23.81;60.08
3250;BME280;1637;42.020;23.992;2022-08-19T05:05:43;92787.53;;;24.05;59.27
3250;BME280;1637;42.020;23.992;2022-08-19T05:08:10;92777.91;;;23.52;61.12
3250;BME280;1637;42.020;23.992;2022-08-19T05:10:38;92784.00;;;23.67;60.46
3250;BME280;1637;42.020;23.992;2022-08-19T05:13:06;92790.97;;;24.31;58.73
3250;BME280;1637;42.020;23.992;2022-08-19T05:15:34;92786.69;;;24.24;59.00
3250;BME280;1637;42.020;23.992;2022-08-19T05:18:01;92783.31;;;24.41;58.42
3250;BME280;1637;42.020;23.992;2022-08-19T05:20:46;92799.19;;;24.79;57.87
3250;BME280;1637;42.020;23.992;2022-08-19T05:23:30;92788.41;;;24.22;59.06
3250;BME280;1637;42.020;23.992;2022-08-19T05:25:57;92789.34;;;24.50;59.42
3250;BME280;1637;42.020;23.992;2022-08-19T05:28:24;92800.19;;;24.82;58.31
3250;BME280;1637;42.020;23.992;2022-08-19T05:30:51;92792.47;;;24.80;58.32
3250;BME280;1637;42.020;23.992;2022-08-19T05:33:21;92795.53;;;24.93;57.13
3250;BME280;1637;42.020;23.992;2022-08-19T05:35:49;92802.66;;;25.45;56.10
3250;BME280;1637;42.020;23.992;2022-08-19T05:38:16;92794.31;;;25.00;58.01
3250;BME280;1637;42.020;23.992;2022-08-19T05:40:43;92805.00;;;26.08;54.42
3250;BME280;1637;42.020;23.992;2022-08-19T05:43:15;92731.16;;;25.65;55.23
3250;BME280;1637;42.020;23.992;2022-08-19T05:45:42;92795.38;;;26.98;52.20
3250;BME280;1637;42.020;23.992;2022-08-19T05:48:10;92792.13;;;26.83;51.41
3250;BME280;1637;42.020;23.992;2022-08-19T05:50:38;92785.19;;;26.76;52.56
3250;BME280;1637;42.020;23.992;2022-08-19T05:53:06;92789.19;;;26.64;53.09
3250;BME280;1637;42.020;23.992;2022-08-19T05:55:34;92767.38;;;26.94;51.28
3250;BME280;1637;42.020;23.992;2022-08-19T05:58:02;92778.81;;;27.09;50.84
3250;BME280;1637;42.020;23.992;2022-08-19T06:00:29;92803.78;;;27.17;50.48
3250;BME280;1637;42.020;23.992;2022-08-19T06:02:56;92799.34;;;27.55;50.23
3250;BME280;1637;42.020;23.992;2022-08-19T06:05:24;92804.56;;;27.99;49.46
3250;BME280;1637;42.020;23.992;2022-08-19T06:07:51;92807.78;;;28.63;47.53
3250;BME280;1637;42.020;23.992;2022-08-19T06:10:20;92805.19;;;28.95;47.60
3250;BME280;1637;42.020;23.992;2022-08-19T06:12:47;92810.00;;;28.89;47.04
3250;BME280;1637;42.020;23.992;2022-08-19T06:15:14;92812.16;;;29.02;46.68
3250;BME280;1637;42.020;23.992;2022-08-19T06:17:41;92807.47;;;29.34;45.82
3250;BME280;1637;42.020;23.992;2022-08-19T06:20:12;92802.31;;;28.58;47.69
3250;BME280;1637;42.020;23.992;2022-08-19T06:22:41;92811.59;;;28.85;46.88
3250;BME280;1637;42.020;23.992;2022-08-19T06:25:09;92805.59;;;29.05;46.78
3250;BME280;1637;42.020;23.992;2022-08-19T06:27:37;92801.63;;;28.76;47.10
3250;BME280;1637;42.020;23.992;2022-08-19T06:30:05;92802.41;;;29.76;44.89
3250;BME280;1637;42.020;23.992;2022-08-19T06:32:32;92799.47;;;30.38;43.96
3250;BME280;1637;42.020;23.992;2022-08-19T06:34:59;92807.41;;;29.78;45.97
3250;BME280;1637;42.020;23.992;2022-08-19T06:37:26;92804.28;;;30.05;44.70
3250;BME280;1637;42.020;23.992;2022-08-19T06:39:55;92798.44;;;30.54;43.60
3250;BME280;1637;42.020;23.992;2022-08-19T06:42:22;92802.88;;;30.44;43.79
3250;BME280;1637;42.020;23.992;2022-08-19T06:44:50;92673.00;;;30.57;41.67
3250;BME280;1637;42.020;23.992;2022-08-19T06:47:19;92792.31;;;31.27;42.32
3250;BME280;1637;42.020;23.992;2022-08-19T06:49:47;92801.47;;;30.83;41.85
3250;BME280;1637;42.020;23.992;2022-08-19T06:52:13;92801.72;;;31.11;41.56
3250;BME280;1637;42.020;23.992;2022-08-19T06:54:41;92790.03;;;30.47;43.40
3250;BME280;1637;42.020;23.992;2022-08-19T06:57:08;92797.56;;;31.65;40.58
3250;BME280;1637;42.020;23.992;2022-08-19T06:59:39;92788.09;;;31.73;40.75
3250;BME280;1637;42.020;23.992;2022-08-19T07:02:07;92789.63;;;31.82;40.54
3250;BME280;1637;42.020;23.992;2022-08-19T07:04:35;92770.59;;;31.31;40.17
3250;BME280;1637;42.020;23.992;2022-08-19T07:07:06;92799.25;;;32.85;37.77
3250;BME280;1637;42.020;23.992;2022-08-19T07:09:41;92792.22;;;32.63;38.10
3250;BME280;1637;42.020;23.992;2022-08-19T07:12:10;92765.69;;;31.37;40.90
3250;BME280;1637;42.020;23.992;2022-08-19T07:14:39;92760.06;;;31.77;41.49
3250;BME280;1637;42.020;23.992;2022-08-19T07:17:09;92778.78;;;32.05;39.79
3250;BME280;1637;42.020;23.992;2022-08-19T07:19:37;92784.19;;;33.30;35.92
3250;BME280;1637;42.020;23.992;2022-08-19T07:22:06;92779.81;;;32.77;39.44
3250;BME280;1637;42.020;23.992;2022-08-19T07:24:34;92780.53;;;31.74;40.85
3250;BME280;1637;42.020;23.992;2022-08-19T07:27:03;92779.34;;;30.96;42.10
3250;BME280;1637;42.020;23.992;2022-08-19T07:29:32;92767.78;;;31.44;40.89
3250;BME280;1637;42.020;23.992;2022-08-19T07:32:00;92771.03;;;31.35;41.24
3250;BME280;1637;42.020;23.992;2022-08-19T07:34:30;92775.59;;;32.63;39.20
3250;BME280;1637;42.020;23.992;2022-08-19T07:36:59;92795.84;;;33.00;39.31
3250;BME280;1637;42.020;23.992;2022-08-19T07:39:29;92775.91;;;33.09;38.82
3250;BME280;1637;42.020;23.992;2022-08-19T07:41:58;92775.25;;;33.67;37.64
3250;BME280;1637;42.020;23.992;2022-08-19T07:44:25;92785.75;;;34.12;36.58
3250;BME280;1637;42.020;23.992;2022-08-19T07:46:54;92777.84;;;34.47;35.85
3250;BME280;1637;42.020;23.992;2022-08-19T07:49:22;92777.19;;;33.95;36.60
3250;BME280;1637;42.020;23.992;2022-08-19T07:51:53;92774.97;;;32.29;40.05
3250;BME280;1637;42.020;23.992;2022-08-19T07:54:22;92784.78;;;33.95;36.35
3250;BME280;1637;42.020;23.992;2022-08-19T07:56:49;92786.00;;;34.68;35.19
3250;BME280;1637;42.020;23.992;2022-08-19T07:59:19;92787.03;;;35.18;33.67
3250;BME280;1637;42.020;23.992;2022-08-19T08:01:46;92781.28;;;35.16;33.23
3250;BME280;1637;42.020;23.992;2022-08-19T08:04:15;92786.69;;;35.29;33.19
3250;BME280;1637;42.020;23.992;2022-08-19T08:07:01;92784.25;;;35.18;32.06
3250;BME280;1637;42.020;23.992;2022-08-19T08:09:46;92779.31;;;34.63;32.62
3250;BME280;1637;42.020;23.992;2022-08-19T08:12:15;92771.66;;;34.10;32.64
3250;BME280;1637;42.020;23.992;2022-08-19T08:14:44;92772.44;;;34.34;33.03
3250;BME280;1637;42.020;23.992;2022-08-19T08:17:13;92774.47;;;34.71;32.76
3250;BME280;1637;42.020;23.992;2022-08-19T08:19:40;92774.50;;;34.56;32.46
3250;BME280;1637;42.020;23.992;2022-08-19T08:22:10;92773.00;;;34.93;33.02
3250;BME280;1637;42.020;23.992;2022-08-19T08:25:02;92795.09;;;34.68;31.60
3250;BME280;1637;42.020;23.992;2022-08-19T08:27:29;92771.66;;;35.09;31.52
3250;BME280;1637;42.020;23.992;2022-08-19T08:29:56;92769.59;;;35.25;31.92
3250;BME280;1637;42.020;23.992;2022-08-19T08:32:23;92775.34;;;35.83;30.40
3250;BME280;1637;42.020;23.992;2022-08-19T08:34:50;92767.00;;;35.20;30.87
3250;BME280;1637;42.020;23.992;2022-08-19T08:37:20;92752.59;;;34.30;32.04
3250;BME280;1637;42.020;23.992;2022-08-19T08:39:47;92764.66;;;34.86;31.64
3250;BME280;1637;42.020;23.992;2022-08-19T08:42:21;92762.72;;;35.19;31.52
3250;BME280;1637;42.020;23.992;2022-08-19T08:44:55;92757.66;;;35.47;31.25
3250;BME280;1637;42.020;23.992;2022-08-19T08:47:25;92758.34;;;36.21;29.76
3250;BME280;1637;42.020;23.992;2022-08-19T08:49:56;92764.31;;;35.52;31.01
3250;BME280;1637;42.020;23.992;2022-08-19T08:52:29;92752.03;;;34.77;31.93
3250;BME280;1637;42.020;23.992;2022-08-19T08:54:59;92747.94;;;35.01;31.66
3250;BME280;1637;42.020;23.992;2022-08-19T08:57:32;92739.22;;;35.92;31.77
3250;BME280;1637;42.020;23.992;2022-08-19T09:00:05;92733.09;;;35.54;30.97
3250;BME280;1637;42.020;23.992;2022-08-19T09:02:34;92750.06;;;35.80;30.90
3250;BME280;1637;42.020;23.992;2022-08-19T09:05:01;92725.75;;;33.07;34.22
3250;BME280;1637;42.020;23.992;2022-08-19T09:07:42;92728.47;;;32.42;34.87
3250;BME280;1637;42.020;23.992;2022-08-19T09:10:17;92726.81;;;33.32;32.90
3250;BME280;1637;42.020;23.992;2022-08-19T09:12:55;92732.59;;;33.50;33.09
3250;BME280;1637;42.020;23.992;2022-08-19T09:15:29;92740.63;;;33.68;33.26
3250;BME280;1637;42.020;23.992;2022-08-19T09:18:01;92716.06;;;34.10;32.57
3250;BME280;1637;42.020;23.992;2022-08-19T09:20:29;92724.94;;;33.78;32.53
3250;BME280;1637;42.020;23.992;2022-08-19T09:22:58;92725.56;;;34.45;30.78
3250;BME280;1637;42.020;23.992;2022-08-19T09:25:25;92730.72;;;34.79;30.81
3250;BME280;1637;42.020;23.992;2022-08-19T09:27:53;92730.94;;;35.37;30.58
3250;BME280;1637;42.020;23.992;2022-08-19T09:30:23;92731.22;;;35.01;27.49
3250;BME280;1637;42.020;23.992;2022-08-19T09:32:51;92723.31;;;35.37;26.92
3250;BME280;1637;42.020;23.992;2022-08-19T09:35:20;92720.03;;;35.31;27.59
3250;BME280;1637;42.020;23.992;2022-08-19T09:37:48;92722.63;;;35.14;27.16
3250;BME280;1637;42.020;23.992;2022-08-19T09:40:17;92716.75;;;34.95;28.83
3250;BME280;1637;42.020;23.992;2022-08-19T09:42:46;92717.81;;;35.14;26.71
3250;BME280;1637;42.020;23.992;2022-08-19T09:45:14;92712.66;;;35.11;26.42
3250;BME280;1637;42.020;23.992;2022-08-19T09:47:42;92709.03;;;34.63;27.62
3250;BME280;1637;42.020;23.992;2022-08-19T09:50:11;92700.34;;;34.43;27.14
3250;BME280;1637;42.020;23.992;2022-08-19T09:52:39;92699.38;;;34.64;26.07
3250;BME280;1637;42.020;23.992;2022-08-19T09:55:09;92694.38;;;34.70;25.91
3250;BME280;1637;42.020;23.992;2022-08-19T09:57:38;92692.56;;;34.42;26.34
3250;BME280;1637;42.020;23.992;2022-08-19T10:00:07;92689.03;;;34.41;27.20
3250;BME280;1637;42.020;23.992;2022-08-19T10:02:35;92692.75;;;34.29;27.99
3250;BME280;1637;42.020;23.992;2022-08-19T10:05:03;92693.66;;;34.08;29.51
3250;BME280;1637;42.020;23.992;2022-08-19T10:07:47;92690.66;;;34.52;28.51
3250;BME280;1637;42.020;23.992;2022-08-19T10:10:14;92683.78;;;34.68;28.78
3250;BME280;1637;42.020;23.992;2022-08-19T10:12:43;92686.22;;;34.64;27.06
3250;BME280;1637;42.020;23.992;2022-08-19T10:15:13;92690.84;;;34.54;27.47
3250;BME280;1637;42.020;23.992;2022-08-19T10:17:41;92691.97;;;34.66;27.25
3250;BME280;1637;42.020;23.992;2022-08-19T10:20:08;92670.66;;;34.23;26.63
3250;BME280;1637;42.020;23.992;2022-08-19T10:22:35;92689.91;;;34.67;27.18
3250;BME280;1637;42.020;23.992;2022-08-19T10:25:04;92677.53;;;34.30;27.32
3250;BME280;1637;42.020;23.992;2022-08-19T10:27:31;92679.53;;;34.60;27.48
3250;BME280;1637;42.020;23.992;2022-08-19T10:29:59;92676.41;;;34.40;28.33
3250;BME280;1637;42.020;23.992;2022-08-19T10:32:26;92666.56;;;34.62;27.17
3250;BME280;1637;42.020;23.992;2022-08-19T10:34:55;92666.19;;;34.51;26.73
3250;BME280;1637;42.020;23.992;2022-08-19T10:37:22;92662.91;;;34.29;26.69
3250;BME280;1637;42.020;23.992;2022-08-19T10:39:49;92659.38;;;34.44;25.50
3250;BME280;1637;42.020;23.992;2022-08-19T10:42:16;92664.00;;;34.34;25.96
3250;BME280;1637;42.020;23.992;2022-08-19T10:44:44;92653.63;;;34.27;26.54
3250;BME280;1637;42.020;23.992;2022-08-19T10:47:13;92667.34;;;33.87;26.37
3250;BME280;1637;42.020;23.992;2022-08-19T10:49:40;92661.78;;;34.02;26.71
3250;BME280;1637;42.020;23.992;2022-08-19T10:52:21;92661.03;;;34.39;26.74
3250;BME280;1637;42.020;23.992;2022-08-19T10:55:00;92655.78;;;34.66;27.37
3250;BME280;1637;42.020;23.992;2022-08-19T10:57:44;92656.91;;;34.71;27.00
3250;BME280;1637;42.020;23.992;2022-08-19T11:00:12;92657.47;;;34.54;27.46
3250;BME280;1637;42.020;23.992;2022-08-19T11:02:41;92656.59;;;34.36;25.89
3250;BME280;1637;42.020;23.992;2022-08-19T11:05:08;92675.25;;;34.66;26.53
3250;BME280;1637;42.020;23.992;2022-08-19T11:07:36;92653.53;;;34.72;26.21
3250;BME280;1637;42.020;23.992;2022-08-19T11:10:05;92643.53;;;35.32;25.88
3250;BME280;1637;42.020;23.992;2022-08-19T11:12:32;92642.91;;;34.94;26.28
3250;BME280;1637;42.020;23.992;2022-08-19T11:14:59;92652.72;;;35.02;25.08
3250;BME280;1637;42.020;23.992;2022-08-19T11:17:25;92646.34;;;34.54;26.63
3250;BME280;1637;42.020;23.992;2022-08-19T11:19:54;92642.25;;;34.55;26.38
3250;BME280;1637;42.020;23.992;2022-08-19T11:22:20;92642.31;;;34.40;26.10
3250;BME280;1637;42.020;23.992;2022-08-19T11:24:47;92638.38;;;34.51;26.60
3250;BME280;1637;42.020;23.992;2022-08-19T11:27:14;92633.78;;;34.23;26.66
3250;BME280;1637;42.020;23.992;2022-08-19T11:29:41;92641.97;;;34.28;27.29
3250;BME280;1637;42.020;23.992;2022-08-19T11:32:09;92638.97;;;34.26;26.23
3250;BME280;1637;42.020;23.992;2022-08-19T11:34:38;92627.66;;;34.24;27.28
3250;BME280;1637;42.020;23.992;2022-08-19T11:37:06;92622.84;;;34.47;26.20
3250;BME280;1637;42.020;23.992;2022-08-19T11:39:35;92629.31;;;34.50;26.59
3250;BME280;1637;42.020;23.992;2022-08-19T11:42:04;92627.47;;;34.37;26.42
3250;BME280;1637;42.020;23.992;2022-08-19T11:44:52;92624.63;;;34.68;27.33
3250;BME280;1637;42.020;23.992;2022-08-19T11:47:19;92622.84;;;34.32;27.98
3250;BME280;1637;42.020;23.992;2022-08-19T11:49:46;92623.50;;;34.71;28.12
3250;BME280;1637;42.020;23.992;2022-08-19T11:52:15;92622.97;;;34.65;26.83
3250;BME280;1637;42.020;23.992;2022-08-19T11:54:41;92608.19;;;34.39;27.52
3250;BME280;1637;42.020;23.992;2022-08-19T11:57:08;92615.06;;;34.16;27.80
3250;BME280;1637;42.020;23.992;2022-08-19T11:59:35;92620.81;;;34.18;28.04
3250;BME280;1637;42.020;23.992;2022-08-19T12:02:02;92620.06;;;34.25;28.16
3250;BME280;1637;42.020;23.992;2022-08-19T12:04:29;92616.00;;;34.10;29.27
3250;BME280;1637;42.020;23.992;2022-08-19T12:06:55;92615.84;;;34.08;29.44
3250;BME280;1637;42.020;23.992;2022-08-19T12:09:24;92608.38;;;34.41;28.60
3250;BME280;1637;42.020;23.992;2022-08-19T12:11:51;92610.16;;;34.69;28.94
3250;BME280;1637;42.020;23.992;2022-08-19T12:14:17;92613.50;;;34.60;28.08
3250;BME280;1637;42.020;23.992;2022-08-19T12:16:45;92609.13;;;34.27;28.05
3250;BME280;1637;42.020;23.992;2022-08-19T12:19:12;92599.66;;;34.30;28.30
3250;BME280;1637;42.020;23.992;2022-08-19T12:21:39;92601.91;;;34.24;28.73
3250;BME280;1637;42.020;23.992;2022-08-19T12:24:06;92599.66;;;34.45;29.18
3250;BME280;1637;42.020;23.992;2022-08-19T12:26:35;92602.41;;;34.53;29.43
3250;BME280;1637;42.020;23.992;2022-08-19T12:29:02;92591.16;;;34.28;30.06
3250;BME280;1637;42.020;23.992;2022-08-19T12:31:29;92593.38;;;34.22;29.49
3250;BME280;1637;42.020;23.992;2022-08-19T12:33:56;92582.59;;;34.49;28.77
3250;BME280;1637;42.020;23.992;2022-08-19T12:36:24;92597.38;;;34.66;29.46
3250;BME280;1637;42.020;23.992;2022-08-19T12:38:51;92591.06;;;34.66;30.06
3250;BME280;1637;42.020;23.992;2022-08-19T12:41:19;92582.16;;;34.67;29.72
3250;BME280;1637;42.020;23.992;2022-08-19T12:43:49;92585.59;;;34.28;29.46
3250;BME280;1637;42.020;23.992;2022-08-19T12:46:17;92581.88;;;34.18;29.71
3250;BME280;1637;42.020;23.992;2022-08-19T12:48:45;92582.06;;;34.20;30.33
3250;BME280;1637;42.020;23.992;2022-08-19T12:51:13;92578.38;;;34.17;31.06
3250;BME280;1637;42.020;23.992;2022-08-19T12:53:41;92587.09;;;33.98;30.65
3250;BME280;1637;42.020;23.992;2022-08-19T12:56:10;92583.59;;;33.98;30.87
3250;BME280;1637;42.020;23.992;2022-08-19T12:58:38;92575.41;;;34.23;30.53
3250;BME280;1637;42.020;23.992;2022-08-19T13:01:10;92577.63;;;34.24;30.87
3250;BME280;1637;42.020;23.992;2022-08-19T13:03:38;92572.22;;;34.34;30.64
3250;BME280;1637;42.020;23.992;2022-08-19T13:06:06;92578.50;;;34.50;28.40
3250;BME280;1637;42.020;23.992;2022-08-19T13:08:33;92574.81;;;34.47;29.66
3250;BME280;1637;42.020;23.992;2022-08-19T13:11:07;92570.31;;;34.59;29.90
3250;BME280;1637;42.020;23.992;2022-08-19T13:13:36;92577.72;;;34.57;29.27
3250;BME280;1637;42.020;23.992;2022-08-19T13:16:06;92571.69;;;34.35;28.75
3250;BME280;1637;42.020;23.992;2022-08-19T13:18:35;92572.25;;;34.11;29.82